Time;durP1;ratioP1;P1;durP2;ratioP2;P2;SDS_P1;SDS_P2;PMS_P1;PMS_P2;Temp;Humidity;BMP_temperature;BMP_pressure;BME280_temperature;BME280_humidity;BME280_pressure;Samples;Min_cycle;Max_cycle;Signal;HPM_P1;HPM_P2
2023/09/23 00:01:04;;;;;;;1.95;0.90;;;12.80;93.90;;;;;;4970815;28;20042;-83
2023/09/23 00:03:33;;;;;;;1.65;0.98;;;12.80;94.20;;;;;;4986895;28;20026;-83
2023/09/23 00:06:00;;;;;;;1.58;0.90;;;12.60;94.30;;;;;;4955947;28;20046;-84
2023/09/23 00:08:25;;;;;;;2.28;1.23;;;12.70;94.50;;;;;;4961799;28;20061;-83
2023/09/23 00:10:51;;;;;;;2.45;2.17;;;12.70;94.40;;;;;;4945621;28;20475;-84
2023/09/23 00:13:20;;;;;;;4.45;1.20;;;12.60;94.50;;;;;;4977496;28;20051;-82
2023/09/23 00:15:46;;;;;;;3.88;1.60;;;12.70;94.40;;;;;;4961523;28;20097;-82
2023/09/23 00:18:15;;;;;;;3.28;1.25;;;12.70;94.30;;;;;;4945665;28;20042;-83
2023/09/23 00:20:42;;;;;;;1.80;1.00;;;12.70;94.40;;;;;;4945603;28;20100;-82
2023/09/23 00:23:08;;;;;;;1.33;0.93;;;12.70;94.40;;;;;;4961613;28;20096;-82
2023/09/23 00:25:34;;;;;;;3.15;1.20;;;12.70;94.30;;;;;;4929646;28;20042;-84
2023/09/23 00:28:00;;;;;;;2.08;1.58;;;12.70;94.40;;;;;;4930090;28;20056;-82
2023/09/23 00:30:26;;;;;;;2.58;1.30;;;12.70;94.50;;;;;;4961849;28;20121;-82
2023/09/23 00:32:52;;;;;;;2.85;1.48;;;12.70;94.50;;;;;;4961240;28;20482;-84
2023/09/23 00:35:18;;;;;;;1.65;1.30;;;12.70;94.70;;;;;;4945527;28;20057;-83
2023/09/23 00:37:48;;;;;;;3.97;1.50;;;12.70;94.70;;;;;;4929645;28;20053;-83
2023/09/23 00:40:17;;;;;;;3.97;1.83;;;12.70;94.60;;;;;;4945492;28;20049;-82
2023/09/23 00:42:47;;;;;;;3.78;1.50;;;12.80;94.70;;;;;;4961054;28;20081;-84
2023/09/23 00:45:15;;;;;;;3.40;2.00;;;12.80;94.60;;;;;;4945246;28;20047;-83
2023/09/23 00:47:43;;;;;;;4.00;1.90;;;12.80;94.90;;;;;;4945072;28;20174;-82
2023/09/23 00:50:19;;;;;;;2.78;1.92;;;12.80;94.80;;;;;;4944958;28;20049;-83
2023/09/23 00:52:51;;;;;;;2.03;1.60;;;12.80;94.80;;;;;;4977017;28;20050;-83
2023/09/23 00:55:24;;;;;;;1.98;1.35;;;12.80;94.90;;;;;;4929671;28;20379;-83
2023/09/23 00:57:53;;;;;;;2.95;1.70;;;12.80;95.00;;;;;;4945164;28;20044;-82
2023/09/23 01:00:31;;;;;;;5.40;2.03;;;12.80;95.00;;;;;;4960806;28;20482;-83
2023/09/23 01:02:58;;;;;;;1.83;1.35;;;12.80;95.00;;;;;;4960862;28;20129;-81
2023/09/23 01:05:27;;;;;;;3.95;1.35;;;12.70;94.90;;;;;;4946085;28;20096;-82
2023/09/23 01:08:11;;;;;;;2.85;1.55;;;12.70;94.90;;;;;;4978037;28;20038;-83
2023/09/23 01:10:37;;;;;;;2.42;1.50;;;12.70;94.80;;;;;;4948421;28;20073;-82
2023/09/23 01:13:14;;;;;;;2.53;1.65;;;12.70;94.80;;;;;;4963868;28;20050;-81
2023/09/23 01:15:40;;;;;;;3.67;2.15;;;12.60;94.80;;;;;;4947742;28;20133;-83
2023/09/23 01:18:14;;;;;;;4.63;2.33;;;12.60;94.80;;;;;;4945273;28;20200;-83
2023/09/23 01:20:49;;;;;;;3.13;2.03;;;12.50;94.80;;;;;;4961444;28;20145;-83
2023/09/23 01:23:15;;;;;;;3.92;3.00;;;12.40;94.80;;;;;;4945919;28;20078;-82
2023/09/23 01:25:41;;;;;;;4.75;3.08;;;12.50;94.80;;;;;;4945295;28;20038;-83
2023/09/23 01:28:13;;;;;;;5.63;3.33;;;12.50;94.70;;;;;;4944649;28;20031;-82
2023/09/23 01:30:45;;;;;;;4.97;3.50;;;12.50;94.70;;;;;;4960775;28;20046;-82
2023/09/23 01:33:16;;;;;;;4.70;4.07;;;12.40;94.70;;;;;;4948196;28;20129;-83
2023/09/23 01:35:42;;;;;;;6.60;4.15;;;12.40;94.60;;;;;;4964444;28;20087;-82
2023/09/23 01:38:08;;;;;;;6.38;4.43;;;12.40;94.60;;;;;;4948849;28;20042;-82
2023/09/23 01:40:36;;;;;;;6.93;4.53;;;12.30;94.40;;;;;;4948258;28;20402;-82
2023/09/23 01:43:02;;;;;;;5.70;4.38;;;12.30;94.50;;;;;;4948597;28;20641;-81
2023/09/23 01:45:28;;;;;;;5.30;4.25;;;12.30;94.50;;;;;;4980486;28;20100;-82
2023/09/23 01:47:56;;;;;;;9.93;5.47;;;12.30;94.60;;;;;;4948593;28;20044;-83
2023/09/23 01:50:26;;;;;;;5.57;4.75;;;12.20;94.60;;;;;;4964079;28;20038;-81
2023/09/23 01:52:52;;;;;;;8.50;5.35;;;12.20;94.50;;;;;;4964110;28;20505;-83
2023/09/23 01:55:18;;;;;;;7.45;5.28;;;12.10;94.50;;;;;;4947491;28;20058;-82
2023/09/23 01:57:47;;;;;;;6.45;4.78;;;12.10;94.50;;;;;;4948340;28;20489;-82
2023/09/23 02:00:17;;;;;;;6.97;5.50;;;12.10;94.40;;;;;;4932882;28;20163;-82
2023/09/23 02:02:48;;;;;;;7.45;5.78;;;12.00;94.50;;;;;;4948661;28;20490;-81
2023/09/23 02:09:10;;;;;;;6.72;5.72;;;12.00;94.70;;;;;;4958669;29;20118;-83
2023/09/23 02:11:43;;;;;;;8.07;5.60;;;12.00;94.60;;;;;;4941433;29;20047;-82
2023/09/23 02:14:09;;;;;;;7.93;5.85;;;12.00;94.60;;;;;;4940660;23;20050;-82
2023/09/23 02:16:35;;;;;;;6.47;5.60;;;12.00;94.60;;;;;;4944521;28;20047;-82
2023/09/23 02:19:02;;;;;;;9.80;6.47;;;11.90;94.80;;;;;;4944556;28;20121;-83
2023/09/23 02:21:28;;;;;;;8.25;5.80;;;11.90;94.80;;;;;;4944543;28;20074;-82
2023/09/23 02:23:55;;;;;;;8.50;5.80;;;11.90;94.80;;;;;;4956883;29;20101;-82
2023/09/23 02:26:22;;;;;;;7.65;6.50;;;11.90;94.90;;;;;;4943005;29;20047;-82
2023/09/23 02:28:48;;;;;;;7.32;5.45;;;11.80;94.90;;;;;;4911819;29;20043;-83
2023/09/23 02:31:15;;;;;;;7.00;5.70;;;11.80;94.90;;;;;;4942461;29;20043;-83
2023/09/23 02:33:40;;;;;;;11.48;5.80;;;11.80;94.90;;;;;;4940729;28;20166;-81
2023/09/23 02:36:06;;;;;;;6.90;5.15;;;11.80;94.90;;;;;;4941175;29;20134;-83
2023/09/23 02:38:35;;;;;;;10.23;5.70;;;11.80;95.00;;;;;;4925324;29;20522;-82
2023/09/23 02:41:04;;;;;;;6.43;5.38;;;11.80;95.00;;;;;;4909441;29;20150;-82
2023/09/23 02:43:29;;;;;;;8.30;5.35;;;11.70;95.00;;;;;;4940174;28;20062;-83
2023/09/23 02:45:56;;;;;;;7.10;5.80;;;11.80;94.90;;;;;;4909356;29;20043;-83
2023/09/23 02:48:23;;;;;;;9.15;5.60;;;11.70;95.00;;;;;;4909582;29;20039;-83
2023/09/23 02:50:49;;;;;;;6.63;4.30;;;11.70;95.10;;;;;;4925027;29;20503;-84
2023/09/23 02:53:14;;;;;;;5.38;4.80;;;11.70;95.00;;;;;;4925097;29;20050;-82
2023/09/23 02:55:42;;;;;;;4.57;3.72;;;11.70;95.00;;;;;;4908890;29;20484;-81
2023/09/23 02:58:08;;;;;;;6.50;4.53;;;11.70;95.00;;;;;;4909411;29;20427;-83
2023/09/23 03:00:34;;;;;;;6.45;4.97;;;11.80;94.90;;;;;;4924400;29;20039;-83
2023/09/23 03:03:08;;;;;;;7.03;5.53;;;11.80;94.90;;;;;;4924697;29;20129;-82
2023/09/23 03:05:38;;;;;;;;;;;11.80;94.80;;;;;;4925161;29;20043;-82
2023/09/23 03:08:07;;;;;;;5.82;4.00;;;11.80;94.90;;;;;;4924707;29;20282;-83
2023/09/23 03:10:39;;;;;;;5.90;4.00;;;11.80;94.80;;;;;;4924907;29;20057;-83
2023/09/23 03:13:07;;;;;;;4.28;3.58;;;11.80;94.80;;;;;;4924561;29;20061;-83
2023/09/23 03:15:41;;;;;;;5.15;4.13;;;11.80;94.80;;;;;;4940129;29;20083;-83
2023/09/23 03:18:07;;;;;;;;;;;11.80;94.80;;;;;;4925533;29;20051;-82
2023/09/23 03:20:36;;;;;;;6.30;4.38;;;11.80;94.90;;;;;;4924566;29;20279;-84
2023/09/23 03:23:03;;;;;;;6.55;3.90;;;11.80;94.80;;;;;;4940382;29;20106;-84
2023/09/23 03:25:43;;;;;;;4.88;3.60;;;11.80;94.80;;;;;;4924885;29;20051;-82
2023/09/23 03:28:39;;;;;;;4.25;3.83;;;11.90;94.80;;;;;;4908855;29;20051;-82
2023/09/23 03:31:17;;;;;;;5.85;3.22;;;11.90;94.70;;;;;;4924436;29;20047;-82
2023/09/23 03:33:55;;;;;;;7.00;3.47;;;12.00;94.70;;;;;;4923834;28;20051;-82
2023/09/23 03:36:26;;;;;;;5.15;2.95;;;12.00;94.70;;;;;;4939860;29;20126;-81
2023/09/23 03:43:12;;;;;;;5.50;3.35;;;12.00;94.70;;;;;;4915201;29;20055;-81
2023/09/23 03:45:40;;;;;;;3.75;3.00;;;12.10;94.60;;;;;;4868971;29;20215;-82
2023/09/23 03:48:06;;;;;;;6.40;3.17;;;12.10;94.60;;;;;;4885691;29;20091;-83
2023/09/23 03:50:32;;;;;;;3.78;2.88;;;12.10;94.70;;;;;;4887479;29;20095;-82
2023/09/23 03:52:58;;;;;;;3.22;2.80;;;12.10;94.70;;;;;;4923968;29;20039;-82
2023/09/23 03:55:24;;;;;;;5.03;2.60;;;12.10;94.60;;;;;;4938523;29;20058;-81
2023/09/23 03:57:50;;;;;;;4.70;2.88;;;12.20;94.60;;;;;;4907954;29;20077;-82
2023/09/23 04:00:20;;;;;;;6.28;3.22;;;12.20;94.60;;;;;;4939250;29;20118;-81
2023/09/23 04:02:47;;;;;;;5.10;3.17;;;12.20;94.60;;;;;;4924090;29;20043;-81
2023/09/23 04:05:16;;;;;;;4.88;3.50;;;12.20;94.60;;;;;;4939167;29;20047;-84
2023/09/23 04:07:49;;;;;;;5.32;3.97;;;12.20;94.70;;;;;;4939250;29;20067;-81
2023/09/23 04:10:19;;;;;;;5.67;5.03;;;12.20;94.70;;;;;;4939228;29;20125;-81
2023/09/23 04:12:45;;;;;;;6.53;4.75;;;12.30;94.90;;;;;;4939350;29;20047;-82
2023/09/23 04:15:12;;;;;;;8.07;5.55;;;12.30;95.30;;;;;;4922971;29;20507;-82
2023/09/23 04:18:35;;;;;;;5.90;5.30;;;12.20;95.50;;;;;;5172842;27;20728;-81
2023/09/23 04:21:20;;;;;;;8.05;5.95;;;12.20;95.40;;;;;;5102074;27;20410;-81
2023/09/23 04:24:18;;;;;;;5.97;5.43;;;12.20;95.20;;;;;;5134047;27;20079;-82
2023/09/23 04:26:47;;;;;;;6.68;5.95;;;12.30;95.20;;;;;;5041558;28;20054;-80
2023/09/23 04:29:36;;;;;;;6.78;6.07;;;12.20;95.20;;;;;;5079857;28;20046;-81
2023/09/23 04:32:04;;;;;;;7.30;6.60;;;12.30;95.10;;;;;;5100987;28;20048;-83
2023/09/23 04:38:34;;;;;;;7.88;7.07;;;12.20;95.10;;;;;;5012007;28;20050;-81
2023/09/23 04:41:01;;;;;;;9.07;6.40;;;12.20;95.00;;;;;;5012271;28;20049;-80
2023/09/23 04:47:23;;;;;;;6.90;5.78;;;12.10;95.10;;;;;;4950445;29;20088;-81
2023/09/23 04:49:49;;;;;;;5.78;5.03;;;12.00;94.90;;;;;;5026124;28;20579;-80
2023/09/23 04:52:19;;;;;;;5.20;4.63;;;12.10;94.90;;;;;;4999040;28;20037;-80
2023/09/23 04:54:45;;;;;;;7.28;5.32;;;12.00;94.90;;;;;;5039974;28;20487;-78
2023/09/23 04:57:10;;;;;;;5.22;4.53;;;12.00;94.80;;;;;;5112836;28;20032;-78
2023/09/23 04:59:36;;;;;;;5.10;4.60;;;12.00;94.70;;;;;;5113069;28;20039;-79
2023/09/23 05:02:03;;;;;;;7.45;4.65;;;12.10;94.60;;;;;;5096060;28;20042;-80
2023/09/23 05:04:28;;;;;;;4.35;3.72;;;12.10;94.70;;;;;;5096898;28;20047;-79
2023/09/23 05:06:56;;;;;;;6.20;3.85;;;12.10;94.80;;;;;;5112696;28;20407;-80
2023/09/23 05:09:22;;;;;;;8.15;4.20;;;12.10;94.70;;;;;;5095780;28;20126;-80
2023/09/23 05:11:51;;;;;;;6.38;3.20;;;12.10;94.60;;;;;;5095521;28;20176;-80
2023/09/23 05:14:17;;;;;;;4.68;3.25;;;12.10;94.80;;;;;;5079079;28;20047;-80
2023/09/23 05:16:43;;;;;;;5.43;3.63;;;12.10;95.00;;;;;;5112275;28;20050;-79
2023/09/23 05:19:09;;;;;;;4.50;3.60;;;12.10;95.10;;;;;;5095204;28;20044;-81
2023/09/23 05:21:39;;;;;;;6.28;3.28;;;12.10;95.10;;;;;;5078561;28;20035;-81
2023/09/23 05:24:06;;;;;;;7.68;3.20;;;12.20;95.30;;;;;;5095717;28;20043;-80
2023/09/23 05:26:33;;;;;;;6.63;3.10;;;12.20;95.30;;;;;;5095630;28;20081;-79
2023/09/23 05:28:58;;;;;;;8.10;3.95;;;12.30;95.30;;;;;;5083155;28;20069;-81
2023/09/23 05:31:25;;;;;;;6.82;4.03;;;12.40;95.20;;;;;;5100256;28;20043;-82
2023/09/23 05:33:50;;;;;;;5.90;3.53;;;12.50;95.60;;;;;;5084286;28;20071;-80
2023/09/23 05:36:17;;;;;;;9.90;4.45;;;12.50;95.70;;;;;;5067158;28;20074;-79
2023/09/23 05:38:43;;;;;;;4.82;3.60;;;12.50;95.80;;;;;;5066952;28;20046;-81
2023/09/23 05:41:09;;;;;;;6.80;3.75;;;12.50;95.90;;;;;;5083477;28;20039;-80
2023/09/23 05:43:44;;;;;;;5.40;3.58;;;12.50;95.90;;;;;;5084172;28;20085;-80
2023/09/23 05:46:11;;;;;;;15.57;10.73;;;12.60;96.00;;;;;;5067657;28;20368;-82
2023/09/23 05:48:37;;;;;;;17.25;15.02;;;12.60;95.90;;;;;;5100173;28;20217;-79
2023/09/23 05:51:06;;;;;;;61.30;55.35;;;12.60;96.00;;;;;;5065919;28;20478;-79
2023/09/23 05:53:33;;;;;;;7.82;4.97;;;12.70;95.80;;;;;;5082375;28;20078;-81
2023/09/23 05:56:02;;;;;;;6.38;5.40;;;12.70;95.90;;;;;;5084816;28;20050;-79
2023/09/23 05:58:28;;;;;;;413.73;35.83;;;12.70;95.90;;;;;;5084663;28;20039;-81
2023/09/23 06:00:53;;;;;;;6.72;5.65;;;12.70;96.00;;;;;;5097527;28;20061;-80
2023/09/23 06:03:19;;;;;;;7.70;6.00;;;12.70;96.00;;;;;;5081073;28;20046;-82
2023/09/23 06:05:45;;;;;;;10.07;6.15;;;12.80;96.00;;;;;;5081386;28;20448;-81
2023/09/23 06:08:12;;;;;;;8.07;5.55;;;12.70;96.00;;;;;;5098048;28;20039;-80
2023/09/23 06:10:39;;;;;;;8.05;6.30;;;12.80;95.90;;;;;;5064902;28;20096;-82
2023/09/23 06:13:11;;;;;;;9.77;6.55;;;12.80;96.00;;;;;;5081063;28;20101;-82
2023/09/23 06:15:37;;;;;;;11.73;7.25;;;12.80;96.10;;;;;;5080773;28;20097;-80
2023/09/23 06:18:03;;;;;;;7.70;6.75;;;12.90;96.20;;;;;;5080747;28;20399;-82
2023/09/23 06:20:29;;;;;;;7.25;6.40;;;13.00;95.90;;;;;;5064441;28;20063;-82
2023/09/23 06:22:54;;;;;;;8.25;7.10;;;13.00;96.00;;;;;;5064347;28;20040;-85
2023/09/23 06:25:20;;;;;;;11.63;7.43;;;13.10;95.70;;;;;;5097774;28;20035;-81
2023/09/23 06:27:46;;;;;;;9.65;8.02;;;13.20;95.60;;;;;;5080926;28;20031;-84
2023/09/23 06:30:15;;;;;;;12.13;7.65;;;13.30;95.80;;;;;;5063934;28;20032;-80
2023/09/23 06:32:41;;;;;;;12.95;8.77;;;13.50;95.50;;;;;;5064786;28;20047;-82
2023/09/23 06:35:09;;;;;;;15.25;9.13;;;13.50;95.70;;;;;;5080231;28;20079;-82
2023/09/23 06:37:35;;;;;;;13.50;9.73;;;13.50;95.50;;;;;;5095345;28;20482;-80
2023/09/23 06:40:01;;;;;;;12.38;8.38;;;13.50;95.80;;;;;;5078179;28;20047;-80
2023/09/23 06:42:26;;;;;;;14.38;7.93;;;13.60;95.40;;;;;;5081679;28;20576;-81
2023/09/23 06:44:52;;;;;;;11.75;9.35;;;13.70;95.20;;;;;;5095514;28;20126;-81
2023/09/23 06:47:18;;;;;;;13.45;8.90;;;13.60;95.30;;;;;;5079715;28;20126;-80
2023/09/23 06:49:43;;;;;;;10.02;7.85;;;13.70;95.40;;;;;;5079698;28;20044;-83
2023/09/23 06:52:11;;;;;;;19.08;8.60;;;13.70;95.30;;;;;;5063086;28;20096;-83
2023/09/23 06:54:37;;;;;;;8.75;7.28;;;13.80;95.40;;;;;;5079870;28;20054;-82
2023/09/23 06:57:03;;;;;;;15.48;8.23;;;13.70;95.30;;;;;;5062838;28;20035;-82
2023/09/23 06:59:29;;;;;;;12.07;8.25;;;13.70;95.50;;;;;;5079404;28;20047;-79
2023/09/23 07:01:54;;;;;;;10.18;7.57;;;13.70;95.40;;;;;;5096613;28;20085;-80
2023/09/23 07:04:20;;;;;;;11.80;7.05;;;13.80;95.40;;;;;;5063080;28;20494;-82
2023/09/23 07:06:46;;;;;;;9.88;7.25;;;13.80;95.40;;;;;;5079511;28;20395;-80
2023/09/23 07:09:13;;;;;;;9.18;6.07;;;13.90;95.30;;;;;;5079394;28;20035;-81
2023/09/23 07:11:38;;;;;;;8.90;6.72;;;13.80;95.40;;;;;;5096176;28;20044;-81
2023/09/23 07:14:05;;;;;;;12.52;6.90;;;13.80;95.50;;;;;;5096493;28;20126;-81
2023/09/23 07:16:32;;;;;;;8.05;6.07;;;13.80;95.60;;;;;;5062408;28;20503;-80
2023/09/23 07:18:57;;;;;;;6.63;5.53;;;13.80;95.50;;;;;;5063148;28;20043;-83
2023/09/23 07:21:23;;;;;;;7.53;5.03;;;13.90;95.50;;;;;;5062662;28;20483;-80
2023/09/23 07:23:49;;;;;;;9.57;5.55;;;13.90;95.60;;;;;;5079209;28;20039;-81
2023/09/23 07:26:20;;;;;;;9.95;6.07;;;14.00;95.60;;;;;;5096292;28;20044;-83
2023/09/23 07:28:45;;;;;;;6.90;4.55;;;14.10;95.70;;;;;;5079319;28;20043;-81
2023/09/23 07:31:12;;;;;;;9.98;4.93;;;14.10;95.50;;;;;;5078879;28;20043;-82
2023/09/23 07:33:37;;;;;;;185.57;30.67;;;14.20;95.40;;;;;;5078854;28;20510;-81
2023/09/23 07:36:12;;;;;;;13.98;4.97;;;14.30;95.30;;;;;;5095320;28;20036;-82
2023/09/23 07:38:38;;;;;;;7.25;4.85;;;14.30;95.20;;;;;;5078821;28;20105;-80
2023/09/23 07:41:04;;;;;;;34.88;8.55;;;14.40;95.10;;;;;;5078893;28;20044;-81
2023/09/23 07:43:30;;;;;;;17.30;15.68;;;14.40;95.10;;;;;;5079072;28;20039;-80
2023/09/23 07:45:55;;;;;;;10.02;5.72;;;14.50;95.20;;;;;;5062320;28;20364;-80
2023/09/23 07:48:21;;;;;;;223.57;41.88;;;14.50;95.00;;;;;;5078663;28;20107;-81
2023/09/23 07:50:47;;;;;;;132.35;24.63;;;14.50;94.90;;;;;;5078415;28;20100;-81
2023/09/23 07:53:12;;;;;;;6.20;4.10;;;14.70;94.70;;;;;;5095789;28;20040;-82
2023/09/23 07:55:38;;;;;;;5.97;3.60;;;14.80;94.40;;;;;;5078435;28;20487;-81
2023/09/23 07:58:04;;;;;;;41.83;8.63;;;14.90;94.00;;;;;;5078808;28;20084;-82
2023/09/23 08:00:30;;;;;;;9.70;3.88;;;14.90;93.50;;;;;;5062200;28;20104;-81
2023/09/23 08:02:55;;;;;;;8.25;3.70;;;14.90;93.40;;;;;;5062669;28;20044;-81
2023/09/23 08:05:25;;;;;;;8.80;2.78;;;15.10;93.40;;;;;;5078936;28;20046;-82
2023/09/23 08:07:51;;;;;;;47.33;9.30;;;15.10;93.20;;;;;;5063178;28;20036;-81
2023/09/23 08:10:17;;;;;;;5.82;1.90;;;15.30;93.00;;;;;;5078917;28;20035;-81
2023/09/23 08:12:44;;;;;;;3.13;1.73;;;15.30;92.50;;;;;;5095651;28;20080;-81
2023/09/23 08:15:11;;;;;;;11.77;3.20;;;15.40;91.80;;;;;;5079026;28;20471;-82
2023/09/23 08:17:39;;;;;;;6.63;1.70;;;15.50;91.50;;;;;;5075631;28;20051;-80
2023/09/23 08:20:20;;;;;;;6.90;2.28;;;15.60;90.90;;;;;;5075337;28;20047;-81
2023/09/23 08:22:49;;;;;;;2.17;1.23;;;15.70;90.80;;;;;;5060350;28;20040;-83
2023/09/23 08:25:20;;;;;;;6.13;1.55;;;15.80;90.20;;;;;;5075033;28;20043;-82
2023/09/23 08:27:46;;;;;;;2.95;1.10;;;15.90;89.30;;;;;;5075160;28;20062;-81
2023/09/23 08:30:15;;;;;;;7.68;1.73;;;16.00;88.90;;;;;;5075537;28;20495;-82
2023/09/23 08:32:41;;;;;;;5.22;1.92;;;15.90;89.10;;;;;;5091839;28;20070;-81
2023/09/23 08:35:16;;;;;;;5.32;2.05;;;16.00;90.10;;;;;;5092167;28;20124;-82
2023/09/23 08:37:45;;;;;;;4.72;1.83;;;16.10;89.70;;;;;;5091480;28;20496;-81
2023/09/23 08:40:19;;;;;;;5.68;2.05;;;16.10;88.90;;;;;;5075669;28;20039;-82
2023/09/23 08:42:50;;;;;;;5.60;2.05;;;16.20;89.30;;;;;;5074996;28;20036;-81
2023/09/23 08:45:20;;;;;;;6.45;2.15;;;16.00;88.60;;;;;;5074942;28;20036;-80
2023/09/23 08:47:46;;;;;;;5.03;1.88;;;16.10;88.90;;;;;;5074642;28;20040;-81
2023/09/23 08:50:12;;;;;;;5.38;1.75;;;16.00;88.90;;;;;;5074789;28;20035;-82
2023/09/23 08:52:38;;;;;;;6.75;2.35;;;16.00;88.60;;;;;;5058001;28;20040;-81
2023/09/23 08:55:07;;;;;;;5.30;2.08;;;16.00;88.90;;;;;;5058439;28;20043;-82
2023/09/23 08:57:33;;;;;;;6.63;1.65;;;16.10;88.40;;;;;;5058391;28;20040;-82
2023/09/23 08:59:59;;;;;;;477.10;87.07;;;16.10;87.90;;;;;;5058138;28;20036;-84
2023/09/23 09:02:25;;;;;;;7.45;1.45;;;16.20;87.80;;;;;;5092110;28;20039;-84
2023/09/23 09:04:58;;;;;;;30.60;5.43;;;16.40;87.20;;;;;;5095552;28;20086;-82
2023/09/23 09:07:34;;;;;;;4.35;2.28;;;16.50;87.40;;;;;;5095027;28;20040;-83
2023/09/23 09:10:00;;;;;;;19.95;5.95;;;16.50;86.60;;;;;;5061723;28;20387;-82
2023/09/23 09:12:27;;;;;;;64.05;10.25;;;16.50;86.10;;;;;;5078242;28;20127;-83
2023/09/23 09:14:53;;;;;;;11.13;2.35;;;16.40;85.90;;;;;;5095072;28;20521;-85
2023/09/23 09:17:19;;;;;;;5.53;1.35;;;16.40;85.90;;;;;;5049694;28;20051;-83
2023/09/23 09:19:45;;;;;;;2.03;1.08;;;16.60;84.80;;;;;;5058344;28;20045;-83
2023/09/23 09:22:11;;;;;;;15.35;3.08;;;16.70;84.60;;;;;;5058100;28;20044;-81
2023/09/23 09:24:37;;;;;;;2.17;1.40;;;16.80;84.20;;;;;;5058968;28;20040;-83
2023/09/23 09:27:07;;;;;;;6.72;2.20;;;16.90;83.90;;;;;;5025673;28;20040;-82
2023/09/23 09:29:33;;;;;;;2.33;1.90;;;16.90;83.70;;;;;;5075254;28;20080;-81
2023/09/23 09:32:03;;;;;;;2.55;0.77;;;16.90;83.70;;;;;;5074629;28;20389;-81
2023/09/23 09:34:45;;;;;;;2.78;0.90;;;16.90;82.50;;;;;;5043792;28;20033;-82
2023/09/23 09:37:15;;;;;;;2.17;1.02;;;16.90;82.50;;;;;;5074340;28;20052;-82
2023/09/23 09:39:53;;;;;;;3.92;1.38;;;17.00;81.70;;;;;;5074342;28;20042;-81
2023/09/23 09:42:30;;;;;;;82.45;13.65;;;17.00;81.70;;;;;;5057727;28;20119;-82
2023/09/23 09:44:59;;;;;;;4.90;1.05;;;17.20;82.50;;;;;;5074266;28;20123;-81
2023/09/23 09:47:27;;;;;;;4.90;0.95;;;17.50;82.50;;;;;;5057578;28;20044;-82
2023/09/23 09:49:54;;;;;;;2.88;1.20;;;17.50;81.30;;;;;;5074502;28;20114;-82
2023/09/23 09:52:28;;;;;;;2.90;0.98;;;17.60;81.00;;;;;;5057752;28;20041;-84
2023/09/23 09:54:57;;;;;;;3.53;0.88;;;17.60;79.70;;;;;;5074408;28;20295;-84
2023/09/23 09:57:28;;;;;;;4.60;1.33;;;17.90;79.80;;;;;;5057376;28;20140;-82
2023/09/23 10:00:15;;;;;;;3.40;1.08;;;18.00;79.50;;;;;;5058048;28;20068;-81
2023/09/23 10:02:44;;;;;;;3.50;1.58;;;17.90;79.60;;;;;;5058978;28;20130;-82
2023/09/23 10:05:17;;;;;;;3.05;1.27;;;17.90;79.30;;;;;;5057676;28;20128;-83
2023/09/23 10:07:55;;;;;;;1.55;1.00;;;17.90;79.40;;;;;;5073832;28;20584;-83
2023/09/23 10:10:31;;;;;;;3.70;0.95;;;17.80;78.00;;;;;;5040728;28;20467;-81
2023/09/23 10:13:11;;;;;;;8.32;1.65;;;17.90;78.20;;;;;;5057132;28;20045;-82
2023/09/23 10:15:40;;;;;;;5.70;0.93;;;18.10;78.30;;;;;;5057105;28;20048;-82
2023/09/23 10:18:17;;;;;;;5.78;1.85;;;18.20;78.00;;;;;;5024057;28;20047;-81
2023/09/23 10:20:56;;;;;;;3.40;1.40;;;18.40;78.40;;;;;;5073737;28;20041;-81
2023/09/23 10:23:22;;;;;;;2.80;0.88;;;18.50;77.10;;;;;;5058103;28;20455;-80
2023/09/23 10:25:51;;;;;;;4.60;1.05;;;18.50;77.60;;;;;;5073934;28;20388;-83
2023/09/23 10:28:21;;;;;;;2.63;1.08;;;18.40;77.00;;;;;;5073393;28;20051;-81
2023/09/23 10:30:57;;;;;;;2.10;1.00;;;18.30;77.40;;;;;;5056698;28;20052;-79
2023/09/23 10:33:25;;;;;;;2.55;0.80;;;18.20;77.10;;;;;;5057234;28;20037;-82
2023/09/23 10:35:54;;;;;;;3.50;1.00;;;18.10;77.10;;;;;;5040822;28;20080;-82
2023/09/23 10:38:34;;;;;;;4.05;1.42;;;18.20;76.90;;;;;;5073928;28;20392;-82
2023/09/23 10:41:01;;;;;;;283.48;39.63;;;18.50;77.00;;;;;;5041080;28;20128;-82
2023/09/23 10:43:27;;;;;;;98.57;16.02;;;18.70;76.60;;;;;;5058546;28;20043;-82
2023/09/23 10:45:54;;;;;;;110.03;18.65;;;18.70;75.80;;;;;;5077744;28;20041;-81
2023/09/23 10:48:20;;;;;;;46.72;6.80;;;18.90;74.60;;;;;;5076393;28;20059;-81
2023/09/23 10:50:47;;;;;;;289.67;50.50;;;18.90;74.70;;;;;;5075626;28;20123;-84
2023/09/23 10:53:14;;;;;;;15.10;2.25;;;18.70;74.60;;;;;;5075841;28;20048;-81
2023/09/23 10:55:40;;;;;;;45.83;9.15;;;18.70;75.20;;;;;;5041911;28;20036;-82
2023/09/23 10:58:10;;;;;;;128.93;19.35;;;18.60;76.40;;;;;;5060450;28;20044;-82
2023/09/23 11:00:41;;;;;;;161.10;28.35;;;18.70;76.70;;;;;;5042713;28;20082;-81
2023/09/23 11:03:11;;;;;;;10.77;2.60;;;18.70;77.10;;;;;;5042706;28;20370;-83
2023/09/23 11:05:39;;;;;;;9.48;1.83;;;18.70;77.60;;;;;;5058184;28;20043;-78
2023/09/23 11:08:12;;;;;;;4.30;1.55;;;18.70;78.50;;;;;;5057911;28;20036;-80
2023/09/23 11:10:43;;;;;;;7.13;1.67;;;18.70;78.50;;;;;;5057922;28;20049;-81
2023/09/23 11:13:10;;;;;;;11.25;2.35;;;18.80;78.80;;;;;;5058063;28;20178;-82
2023/09/23 11:15:41;;;;;;;2.65;1.13;;;18.70;78.80;;;;;;5075190;28;20044;-83
2023/09/23 11:18:08;;;;;;;4.55;1.17;;;18.50;78.10;;;;;;5090672;28;20048;-81
2023/09/23 11:20:37;;;;;;;5.47;1.20;;;18.40;77.40;;;;;;5076035;28;20122;-80
2023/09/23 11:23:05;;;;;;;2.13;1.00;;;18.20;77.70;;;;;;5092499;28;20043;-82
2023/09/23 11:25:41;;;;;;;3.80;0.98;;;18.20;78.20;;;;;;5075415;28;20036;-80
2023/09/23 11:28:15;;;;;;;1.48;0.60;;;18.30;78.90;;;;;;5092568;28;20580;-82
2023/09/23 11:30:41;;;;;;;1.23;0.70;;;18.50;78.60;;;;;;5075843;28;20391;-81
2023/09/23 11:33:07;;;;;;;3.20;1.00;;;18.50;78.10;;;;;;5075582;28;20051;-81
2023/09/23 11:35:33;;;;;;;2.22;0.90;;;18.60;78.00;;;;;;5075837;28;20036;-82
2023/09/23 11:37:59;;;;;;;1.48;0.80;;;18.80;77.20;;;;;;5075612;28;20036;-82
2023/09/23 11:40:25;;;;;;;2.38;1.40;;;18.90;77.00;;;;;;5075613;28;20040;-83
2023/09/23 11:42:51;;;;;;;3.47;1.00;;;18.90;75.90;;;;;;5075777;28;20054;-81
2023/09/23 11:45:17;;;;;;;2.17;1.00;;;19.10;76.50;;;;;;5075797;28;20040;-81
2023/09/23 11:47:43;;;;;;;4.55;1.27;;;19.10;76.10;;;;;;5042254;28;20484;-82
2023/09/23 11:50:09;;;;;;;113.55;22.45;;;19.10;75.90;;;;;;5075379;28;20051;-83
2023/09/23 11:52:35;;;;;;;6.80;1.75;;;19.10;75.20;;;;;;5092582;28;20040;-83
2023/09/23 11:55:01;;;;;;;2.42;1.27;;;18.90;75.20;;;;;;5058795;28;20381;-81
2023/09/23 11:57:27;;;;;;;103.45;15.40;;;18.80;74.20;;;;;;5075302;28;20052;-82
2023/09/23 11:59:53;;;;;;;466.13;87.10;;;18.90;75.00;;;;;;5092225;28;20036;-82
2023/09/23 12:02:19;;;;;;;6.88;1.48;;;19.00;73.70;;;;;;5092317;28;20126;-82
2023/09/23 12:04:46;;;;;;;5.35;1.40;;;19.00;73.10;;;;;;5075554;28;20040;-83
2023/09/23 12:07:14;;;;;;;7.03;1.58;;;19.10;73.20;;;;;;5059004;28;20039;-82
2023/09/23 12:09:40;;;;;;;7.15;1.52;;;19.40;73.40;;;;;;5075635;28;20043;-80
2023/09/23 12:12:07;;;;;;;287.25;47.45;;;19.50;73.00;;;;;;5091491;28;20043;-80
2023/09/23 12:14:33;;;;;;;4.53;1.20;;;19.80;72.70;;;;;;5075231;28;20139;-81
2023/09/23 12:17:00;;;;;;;65.88;12.18;;;20.00;70.80;;;;;;5074624;28;20476;-80
2023/09/23 12:19:25;;;;;;;232.00;31.20;;;20.00;69.00;;;;;;5092075;28;20153;-82
2023/09/23 12:21:51;;;;;;;365.98;57.25;;;20.20;70.00;;;;;;5091677;28;20036;-80
2023/09/23 12:24:17;;;;;;;51.38;8.15;;;20.30;69.90;;;;;;5074955;28;20093;-80
2023/09/23 12:26:42;;;;;;;9.70;1.40;;;20.50;69.50;;;;;;5091680;28;20085;-79
2023/09/23 12:29:08;;;;;;;4.32;1.25;;;20.70;68.50;;;;;;5091747;28;20043;-80
2023/09/23 12:31:34;;;;;;;4.40;1.30;;;20.80;68.50;;;;;;5075171;28;20046;-80
2023/09/23 12:34:00;;;;;;;2.55;1.20;;;21.00;67.80;;;;;;5091977;28;20529;-79
2023/09/23 12:36:28;;;;;;;4.93;1.20;;;20.90;68.10;;;;;;5091574;28;20046;-79
2023/09/23 12:38:56;;;;;;;4.68;1.20;;;21.00;66.70;;;;;;5061746;28;20036;-80
2023/09/23 12:41:22;;;;;;;3.78;1.10;;;21.20;67.10;;;;;;5063011;28;20071;-80
2023/09/23 12:43:49;;;;;;;5.05;1.20;;;21.40;67.00;;;;;;5095713;28;20076;-80
2023/09/23 12:46:15;;;;;;;3.85;1.05;;;21.40;65.50;;;;;;5095799;28;20044;-81
2023/09/23 12:48:41;;;;;;;1.83;0.70;;;21.20;64.80;;;;;;5078958;28;20504;-77
2023/09/23 12:51:07;;;;;;;4.03;0.85;;;21.20;65.30;;;;;;5095882;28;20521;-79
2023/09/23 12:53:32;;;;;;;2.72;1.05;;;21.40;64.80;;;;;;5078788;28;20059;-78
2023/09/23 12:55:58;;;;;;;4.18;1.00;;;21.50;64.10;;;;;;5078404;28;20083;-77
2023/09/23 12:58:24;;;;;;;2.88;0.70;;;21.30;64.00;;;;;;5061902;28;20129;-78
2023/09/23 13:00:49;;;;;;;1.73;0.70;;;21.10;64.40;;;;;;5096467;28;20036;-81
2023/09/23 13:03:18;;;;;;;2.80;1.05;;;20.90;65.20;;;;;;5064511;28;20028;-82
2023/09/23 13:05:44;;;;;;;4.45;0.90;;;20.60;65.80;;;;;;5064701;28;20040;-81